Time;durP1;ratioP1;P1;durP2;ratioP2;P2;SDS_P1;SDS_P2;PMS_P1;PMS_P2;Temp;Humidity;BMP_temperature;BMP_pressure;BME280_temperature;BME280_humidity;BME280_pressure;Samples;Min_cycle;Max_cycle;Signal;HPM_P1;HPM_P2
2024/04/16 00:04:12;;;;;;;17.83;7.88;;;;;;;4.17;100.00;98756.13;11166450;26;20014;-32
2024/04/16 00:09:14;;;;;;;16.02;7.35;;;;;;;4.16;100.00;98732.81;11161682;26;19999;-31
2024/04/16 00:14:15;;;;;;;17.20;7.40;;;;;;;4.26;100.00;98739.16;11162764;26;20024;-31
2024/04/16 00:19:26;;;;;;;14.05;6.28;;;;;;;4.32;100.00;98727.28;11131060;26;20349;-32
2024/04/16 00:24:27;;;;;;;12.48;6.68;;;;;;;4.34;100.00;98714.38;11143341;26;19996;-32
2024/04/16 00:29:28;;;;;;;18.65;6.30;;;;;;;4.34;100.00;98722.13;11161179;26;20000;-31
2024/04/16 00:34:29;;;;;;;17.63;5.93;;;;;;;4.40;100.00;98722.31;11161365;26;19996;-32
2024/04/16 00:39:30;;;;;;;13.18;5.07;;;;;;;4.40;100.00;98712.84;11162523;26;20323;-33
2024/04/16 00:44:31;;;;;;;13.13;4.82;;;;;;;4.34;100.00;98710.06;11164277;26;20006;-33
2024/04/16 00:49:33;;;;;;;15.60;4.78;;;;;;;4.32;100.00;98706.59;11162744;26;19996;-32
2024/04/16 00:54:34;;;;;;;17.80;4.70;;;;;;;4.36;100.00;98704.97;11163921;26;20000;-33
2024/04/16 00:59:35;;;;;;;12.98;4.30;;;;;;;4.40;100.00;98711.97;11121572;26;20003;-33
2024/04/16 01:04:36;;;;;;;10.25;3.65;;;;;;;4.40;100.00;98704.22;11161147;26;20011;-33
2024/04/16 01:09:37;;;;;;;16.42;3.90;;;;;;;4.39;100.00;98700.75;11130959;26;20006;-32
2024/04/16 01:14:38;;;;;;;9.57;3.20;;;;;;;4.39;100.00;98707.63;11167600;26;20035;-31
2024/04/16 01:19:40;;;;;;;9.65;3.05;;;;;;;4.30;100.00;98705.66;11162617;26;20004;-31
2024/04/16 01:24:41;;;;;;;11.40;3.15;;;;;;;4.32;100.00;98693.66;11161561;26;20107;-32
2024/04/16 01:29:42;;;;;;;11.18;3.28;;;;;;;4.32;100.00;98685.91;11161325;26;20008;-32
2024/04/16 01:34:43;;;;;;;11.93;3.40;;;;;;;4.23;100.00;98679.59;11161090;26;20437;-32
2024/04/16 01:39:44;;;;;;;10.80;3.47;;;;;;;4.21;100.00;98673.47;11161283;26;20369;-32
2024/04/16 01:44:47;;;;;;;14.43;3.60;;;;;;;4.23;100.00;98677.88;11161093;26;20008;-32
2024/04/16 01:49:49;;;;;;;11.82;3.70;;;;;;;4.28;100.00;98685.75;11162675;26;20004;-31
2024/04/16 01:54:50;;;;;;;10.02;3.10;;;;;;;4.26;100.00;98661.56;11157947;26;20326;-32
2024/04/16 01:59:51;;;;;;;10.57;3.28;;;;;;;4.25;100.00;98667.56;11133455;26;19996;-32
2024/04/16 02:04:52;;;;;;;8.60;3.20;;;;;;;4.29;100.00;98659.94;11157544;26;20000;-32
2024/04/16 02:09:53;;;;;;;9.60;2.95;;;;;;;4.26;100.00;98646.06;11158435;26;20004;-32
2024/04/16 02:14:54;;;;;;;10.73;2.90;;;;;;;4.23;100.00;98635.63;11163611;26;19997;-32
2024/04/16 02:19:55;;;;;;;7.93;2.60;;;;;;;4.22;100.00;98634.75;11157755;26;19997;-34
2024/04/16 02:24:56;;;;;;;8.30;2.20;;;;;;;4.22;100.00;98629.59;11157261;26;20000;-32
2024/04/16 02:29:58;;;;;;;8.27;2.40;;;;;;;4.15;100.00;98613.03;11131864;26;20011;-32
2024/04/16 02:34:59;;;;;;;11.55;2.58;;;;;;;4.18;100.00;98622.53;11156852;26;20007;-32
2024/04/16 02:40:00;;;;;;;8.10;2.40;;;;;;;4.21;100.00;98596.78;11163991;26;20011;-32
2024/04/16 02:45:01;;;;;;;10.15;2.35;;;;;;;4.18;100.00;98609.63;11157950;26;20453;-32
2024/04/16 02:50:02;;;;;;;10.18;2.20;;;;;;;4.20;100.00;98602.78;11156302;26;20003;-31
2024/04/16 02:55:05;;;;;;;6.47;2.58;;;;;;;4.15;100.00;98607.84;11163899;26;20004;-32
2024/04/16 03:00:07;;;;;;;8.90;2.40;;;;;;;4.14;100.00;98616.41;11119025;26;20011;-32
2024/04/16 03:05:08;;;;;;;8.68;2.60;;;;;;;4.14;100.00;98593.16;11130379;26;20014;-32
2024/04/16 03:10:15;;;;;;;8.93;2.67;;;;;;;4.17;100.00;98594.94;11156335;26;20036;-32
2024/04/16 03:15:16;;;;;;;7.23;1.90;;;;;;;4.13;100.00;98588.81;11145075;26;20476;-33
2024/04/16 03:20:17;;;;;;;9.77;2.50;;;;;;;4.13;100.00;98593.13;11159203;26;20028;-32
2024/04/16 03:25:18;;;;;;;7.60;2.60;;;;;;;4.05;100.00;98585.13;11157858;26;19995;-32
2024/04/16 03:30:19;;;;;;;6.82;2.67;;;;;;;4.00;100.00;98596.19;11157172;26;20440;-32
2024/04/16 03:35:21;;;;;;;7.35;2.88;;;;;;;4.04;100.00;98592.84;11152202;26;20007;-33
2024/04/16 03:40:22;;;;;;;12.80;2.60;;;;;;;4.07;100.00;98583.47;11133575;26;19996;-32
2024/04/16 03:45:23;;;;;;;6.80;2.45;;;;;;;4.10;100.00;98605.97;11164948;26;20002;-33
2024/04/16 03:50:25;;;;;;;7.45;2.50;;;;;;;4.18;100.00;98582.06;11163174;26;20002;-32
2024/04/16 03:55:27;;;;;;;10.10;3.10;;;;;;;4.18;100.00;98571.72;11163617;26;19999;-32
2024/04/16 04:05:47;;;;;;;8.90;3.28;;;;;;;4.23;100.00;98579.63;11156735;26;20440;-32
2024/04/16 04:10:49;;;;;;;12.05;3.80;;;;;;;4.18;100.00;98557.91;11167138;26;20485;-31
2024/04/16 04:15:50;;;;;;;13.65;4.53;;;;;;;4.16;100.00;98560.47;11161680;26;20000;-32
2024/04/16 04:20:51;;;;;;;12.95;4.22;;;;;;;4.21;100.00;98570.94;11156460;26;20018;-31
2024/04/16 04:25:52;;;;;;;10.98;3.80;;;;;;;4.19;100.00;98568.31;11163830;26;20450;-32
2024/04/16 04:30:53;;;;;;;10.77;4.10;;;;;;;4.12;100.00;98570.66;11160330;26;20007;-32
2024/04/16 04:35:55;;;;;;;8.75;3.92;;;;;;;4.05;100.00;98568.75;11162670;26;19996;-31
2024/04/16 04:40:56;;;;;;;8.35;3.92;;;;;;;3.99;100.00;98560.81;11161085;26;20008;-31
2024/04/16 04:45:57;;;;;;;8.25;3.40;;;;;;;3.90;100.00;98557.16;11160072;26;20032;-32
2024/04/16 04:50:58;;;;;;;7.07;3.47;;;;;;;3.91;100.00;98565.78;11166305;26;20000;-32
2024/04/16 04:55:59;;;;;;;8.55;3.30;;;;;;;3.95;100.00;98557.28;11157990;26;20011;-32
2024/04/16 05:01:01;;;;;;;8.48;3.70;;;;;;;3.86;100.00;98563.03;11159547;26;19992;-32
2024/04/16 05:06:03;;;;;;;11.05;4.03;;;;;;;3.87;100.00;98551.91;11168340;26;20000;-31
2024/04/16 05:11:04;;;;;;;10.07;4.55;;;;;;;3.85;100.00;98550.97;11159542;26;20461;-32
2024/04/16 05:16:05;;;;;;;9.40;4.65;;;;;;;3.86;100.00;98557.88;11165144;26;20076;-32
2024/04/16 05:21:06;;;;;;;9.88;4.60;;;;;;;3.92;100.00;98550.31;11160989;26;19999;-32
2024/04/16 05:26:08;;;;;;;14.65;4.63;;;;;;;3.99;100.00;98553.06;11156701;26;20011;-32
2024/04/16 05:31:09;;;;;;;10.95;4.90;;;;;;;4.00;100.00;98532.44;11160136;26;20072;-32
2024/04/16 05:36:10;;;;;;;11.80;4.70;;;;;;;4.05;100.00;98546.34;11159791;26;20080;-31
2024/04/16 05:41:11;;;;;;;12.02;5.00;;;;;;;4.13;100.00;98546.59;11158106;26;20016;-32
2024/04/16 05:46:12;;;;;;;12.30;5.53;;;;;;;4.12;100.00;98535.38;11163048;26;20344;-32
2024/04/16 05:51:14;;;;;;;13.07;5.25;;;;;;;4.16;100.00;98536.34;11158910;26;19996;-32
2024/04/16 05:56:15;;;;;;;15.55;6.25;;;;;;;4.14;100.00;98543.16;11162948;26;20468;-31
2024/04/16 06:01:17;;;;;;;11.70;6.20;;;;;;;4.15;100.00;98532.88;11157094;26;20003;-32
2024/04/16 06:06:18;;;;;;;15.20;5.82;;;;;;;4.23;100.00;98530.47;11161091;26;20091;-32
2024/04/16 06:11:19;;;;;;;9.70;5.13;;;;;;;4.22;100.00;98513.22;11159901;26;19992;-32
2024/04/16 06:16:20;;;;;;;9.77;4.90;;;;;;;4.39;100.00;98524.00;11160190;26;20057;-32
2024/04/16 06:21:22;;;;;;;10.55;5.00;;;;;;;4.40;100.00;98510.22;11155260;26;19996;-32
2024/04/16 06:26:23;;;;;;;12.60;4.70;;;;;;;4.53;100.00;98504.53;11159679;26;20022;-32
2024/04/16 06:31:24;;;;;;;11.23;4.55;;;;;;;4.57;100.00;98477.06;11158913;26;20015;-32
2024/04/16 06:36:25;;;;;;;10.40;4.70;;;;;;;4.74;100.00;98462.81;11150687;26;20006;-32
2024/04/16 06:41:29;;;;;;;10.52;4.88;;;;;;;4.92;100.00;98459.78;11133713;26;20000;-32
2024/04/16 06:46:30;;;;;;;11.38;4.88;;;;;;;5.05;100.00;98454.03;11157009;26;20081;-32
2024/04/16 06:51:31;;;;;;;13.27;4.88;;;;;;;5.17;100.00;98440.50;11158119;26;20031;-33
2024/04/16 06:56:34;;;;;;;10.45;4.75;;;;;;;5.16;100.00;98440.47;11123804;26;20018;-32
2024/04/16 07:01:35;;;;;;;12.88;5.28;;;;;;;5.05;100.00;98433.34;11150102;26;20011;-32
2024/04/16 07:06:36;;;;;;;13.35;5.63;;;;;;;4.93;100.00;98422.69;11156180;26;20073;-32
2024/04/16 07:11:37;;;;;;;14.55;5.15;;;;;;;4.83;100.00;98420.75;11158628;26;20003;-32
2024/04/16 07:16:38;;;;;;;14.38;5.25;;;;;;;4.87;100.00;98417.38;11167645;26;20001;-32
2024/04/16 07:21:40;;;;;;;12.50;5.28;;;;;;;4.83;100.00;98398.31;11163231;26;20007;-33
2024/04/16 07:26:41;;;;;;;11.52;4.57;;;;;;;4.74;100.00;98399.84;11163967;26;20003;-32
2024/04/16 07:31:42;;;;;;;12.05;4.78;;;;;;;4.71;100.00;98404.94;11132803;26;20000;-32
2024/04/16 07:36:43;;;;;;;9.93;5.07;;;;;;;4.52;100.00;98395.88;11161202;26;20008;-32
2024/04/16 07:41:45;;;;;;;9.52;4.50;;;;;;;4.48;100.00;98386.31;11161329;26;20077;-31
2024/04/16 07:46:47;;;;;;;7.22;3.72;;;;;;;4.25;100.00;98396.97;11162966;26;19996;-31
2024/04/16 07:51:49;;;;;;;8.10;3.38;;;;;;;3.82;100.00;98380.34;11156432;26;20000;-31
2024/04/16 07:56:50;;;;;;;6.55;3.33;;;;;;;3.89;100.00;98374.50;11164861;26;20012;-32
2024/04/16 08:01:51;;;;;;;7.45;2.80;;;;;;;3.71;100.00;98363.69;11161424;26;19996;-32
2024/04/16 08:06:52;;;;;;;6.65;3.50;;;;;;;3.70;100.00;98356.78;11165805;26;19995;-31
2024/04/16 08:11:53;;;;;;;8.35;4.38;;;;;;;3.80;100.00;98351.00;11160484;26;20327;-31
2024/04/16 08:16:55;;;;;;;6.97;3.58;;;;;;;3.80;100.00;98345.84;11130171;26;20026;-31
2024/04/16 08:21:56;;;;;;;5.80;3.50;;;;;;;3.76;100.00;52105.09;11165437;26;20488;-32
2024/04/16 08:26:57;;;;;;;5.82;3.45;;;;;;;3.76;100.00;98327.47;11155482;26;19996;-32
2024/04/16 08:31:58;;;;;;;7.05;3.80;;;;;;;3.59;100.00;98340.13;11131952;26;20010;-32
2024/04/16 08:36:59;;;;;;;5.78;3.45;;;;;;;3.60;100.00;98350.50;11156690;26;20445;-32
2024/04/16 08:42:00;;;;;;;5.57;2.67;;;;;;;3.52;100.00;98339.09;11159304;26;19992;-32
2024/04/16 08:47:01;;;;;;;3.40;2.03;;;;;;;3.43;100.00;98326.81;11166172;26;20006;-32
2024/04/16 08:52:02;;;;;;;5.95;2.60;;;;;;;3.40;100.00;98320.69;11159783;26;19996;-32
2024/04/16 08:57:04;;;;;;;3.83;2.22;;;;;;;3.48;100.00;98312.28;11099297;26;20007;-32
2024/04/16 09:02:05;;;;;;;5.10;2.22;;;;;;;3.56;100.00;98309.06;11127127;26;20475;-32
2024/04/16 09:07:06;;;;;;;3.70;2.30;;;;;;;3.70;100.00;98305.97;11158448;26;20310;-32
2024/04/16 09:12:08;;;;;;;3.80;2.38;;;;;;;3.80;100.00;98314.81;11133683;26;20344;-32
2024/04/16 09:17:15;;;;;;;4.15;2.47;;;;;;;3.80;100.00;98293.28;11158866;26;19999;-32
2024/04/16 09:22:17;;;;;;;3.78;2.55;;;;;;;3.90;100.00;98298.75;11163105;26;20315;-32
2024/04/16 09:27:19;;;;;;;6.40;3.30;;;;;;;3.93;100.00;98293.66;11162534;26;19999;-32
2024/04/16 09:32:20;;;;;;;7.22;4.25;;;;;;;4.17;100.00;98295.94;11100560;26;20417;-32
2024/04/16 09:37:21;;;;;;;8.75;5.20;;;;;;;4.27;100.00;98297.00;11156089;26;20000;-31
2024/04/16 09:42:22;;;;;;;12.60;6.63;;;;;;;4.51;100.00;98295.84;11160371;26;19999;-32
2024/04/16 09:47:23;;;;;;;15.70;7.88;;;;;;;4.69;100.00;98303.97;11164810;26;20445;-33
2024/04/16 09:52:25;;;;;;;18.75;9.02;;;;;;;4.78;100.00;98311.94;11159835;26;20441;-32
2024/04/16 09:57:27;;;;;;;17.88;10.35;;;;;;;4.88;100.00;98313.91;11155118;26;19999;-32
2024/04/16 10:02:28;;;;;;;23.50;10.73;;;;;;;4.96;100.00;98308.00;11127692;26;20103;-33
2024/04/16 10:07:29;;;;;;;21.90;11.48;;;;;;;5.04;100.00;98315.09;11095835;26;20036;-33
2024/04/16 10:12:32;;;;;;;13.65;7.93;;;;;;;5.16;100.00;98311.00;11097198;26;19995;-33
2024/04/16 10:17:34;;;;;;;17.77;9.73;;;;;;;5.30;100.00;98314.75;11132818;26;20011;-32
2024/04/16 10:22:38;;;;;;;26.20;10.25;;;;;;;5.46;100.00;98319.38;11159626;26;20011;-32
2024/04/16 10:27:39;;;;;;;22.23;11.05;;;;;;;5.51;100.00;98333.25;11158942;26;19996;-32
2024/04/16 10:32:44;;;;;;;13.30;7.20;;;;;;;5.58;100.00;98336.84;11097256;26;20000;-33
2024/04/16 10:37:48;;;;;;;14.20;7.38;;;;;;;5.70;100.00;98347.44;11157414;26;19992;-33
2024/04/16 10:42:50;;;;;;;10.05;4.40;;;;;;;5.66;100.00;98353.41;11148447;26;20011;-33
2024/04/16 10:47:51;;;;;;;9.23;3.72;;;;;;;5.61;100.00;98364.53;11104689;26;20571;-34
2024/04/16 10:52:52;;;;;;;7.82;4.43;;;;;;;5.72;100.00;98369.06;11132787;26;20004;-35
2024/04/16 10:57:53;;;;;;;11.73;4.70;;;;;;;5.80;100.00;98406.41;11169343;26;20008;-34
2024/04/16 11:02:54;;;;;;;8.95;4.15;;;;;;;5.67;100.00;98406.09;11131287;26;20000;-34
2024/04/16 11:07:55;;;;;;;11.82;4.68;;;;;;;5.77;100.00;98411.53;11132655;26;20070;-33
2024/04/16 11:12:57;;;;;;;8.82;4.45;;;;;;;5.99;100.00;98422.31;11168557;26;19996;-33
2024/04/16 11:17:58;;;;;;;8.10;4.57;;;;;;;5.89;100.00;98441.09;11155796;26;20338;-33
2024/04/16 11:22:59;;;;;;;9.60;4.40;;;;;;;5.76;100.00;98464.19;11137149;26;20014;-33
2024/04/16 11:28:01;;;;;;;11.23;4.93;;;;;;;5.51;100.00;98490.44;11131733;26;20000;-35
2024/04/16 11:33:02;;;;;;;11.95;6.05;;;;;;;5.38;100.00;98528.16;11130469;26;20000;-33
2024/04/16 11:38:03;;;;;;;12.15;6.53;;;;;;;5.29;100.00;98552.13;11169949;26;20023;-34
2024/04/16 11:43:04;;;;;;;14.02;6.55;;;;;;;5.33;100.00;98566.91;11161641;26;20004;-34
2024/04/16 11:48:06;;;;;;;11.40;5.95;;;;;;;5.29;100.00;98584.91;11151068;26;20329;-33
2024/04/16 11:53:07;;;;;;;12.07;6.30;;;;;;;5.23;100.00;98597.72;11116543;26;20018;-34
2024/04/16 11:58:08;;;;;;;12.55;6.40;;;;;;;5.22;100.00;98609.78;11161821;26;20023;-34
2024/04/16 12:03:10;;;;;;;13.40;6.72;;;;;;;5.18;100.00;98644.22;11131523;26;20014;-34
2024/04/16 12:08:12;;;;;;;12.90;6.53;;;;;;;5.04;100.00;98654.25;11165209;26;20287;-33
2024/04/16 12:13:14;;;;;;;14.40;7.07;;;;;;;5.03;100.00;98667.13;11160939;26;19996;-34
2024/04/16 12:18:15;;;;;;;13.20;6.85;;;;;;;4.97;100.00;98682.50;11160827;26;19999;-34
2024/04/16 12:23:16;;;;;;;14.63;7.22;;;;;;;4.98;100.00;98707.56;11162282;26;20625;-33
2024/04/16 12:28:17;;;;;;;15.10;7.63;;;;;;;5.00;100.00;98717.13;11130789;26;20076;-34
2024/04/16 12:33:18;;;;;;;15.45;7.22;;;;;;;4.89;100.00;98734.97;11163512;26;20011;-35
2024/04/16 12:38:19;;;;;;;13.95;7.32;;;;;;;4.91;100.00;98752.22;11154862;26;20040;-34
2024/04/16 12:43:21;;;;;;;15.48;7.90;;;;;;;5.02;100.00;98756.00;11156432;26;20004;-35
2024/04/16 12:48:22;;;;;;;14.07;7.53;;;;;;;5.13;100.00;98770.13;11153606;26;20014;-33
2024/04/16 12:53:23;;;;;;;13.93;6.90;;;;;;;5.13;100.00;98780.47;11136223;26;20004;-35
2024/04/16 12:58:24;;;;;;;12.73;6.97;;;;;;;5.10;100.00;98789.03;11162989;26;20014;-33
2024/04/16 13:03:25;;;;;;;14.80;7.47;;;;;;;5.19;100.00;98806.53;11162601;26;19999;-34
2024/04/16 13:08:26;;;;;;;13.20;7.28;;;;;;;5.24;100.00;98817.91;11161691;26;20010;-34
2024/04/16 13:13:27;;;;;;;23.55;12.95;;;;;;;5.26;100.00;98824.00;11160413;26;20006;-34
2024/04/16 13:18:29;;;;;;;13.43;7.43;;;;;;;5.38;100.00;98833.81;11160484;26;20030;-35
2024/04/16 13:23:30;;;;;;;11.98;6.38;;;;;;;5.40;100.00;98842.53;11160412;26;20000;-35
2024/04/16 13:28:31;;;;;;;11.40;6.45;;;;;;;5.64;100.00;98844.03;11128374;26;20000;-34
2024/04/16 13:33:32;;;;;;;12.82;6.63;;;;;;;5.76;100.00;98847.81;11160006;26;20077;-34
2024/04/16 13:38:34;;;;;;;10.77;6.28;;;;;;;6.16;100.00;98848.88;11160369;26;20015;-34
2024/04/16 13:43:35;;;;;;;9.10;5.57;;;;;;;6.61;100.00;98848.19;11150836;26;20031;-34
2024/04/16 13:48:36;;;;;;;8.48;5.63;;;;;;;6.58;100.00;98842.06;11160302;26;20078;-36
2024/04/16 13:53:37;;;;;;;7.80;4.90;;;;;;;6.44;100.00;98859.91;11159642;26;19995;-33
2024/04/16 13:58:39;;;;;;;7.28;4.75;;;;;;;6.38;100.00;98864.97;11159811;26;20000;-35
2024/04/16 14:03:40;;;;;;;8.27;5.22;;;;;;;6.50;100.00;98875.59;11159359;26;20028;-34
2024/04/16 14:08:41;;;;;;;8.18;4.70;;;;;;;6.83;100.00;98870.34;11158462;26;20000;-34
2024/04/16 14:13:42;;;;;;;6.25;4.20;;;;;;;6.86;100.00;98885.13;11159650;26;20015;-34
2024/04/16 14:18:52;;;;;;;6.28;4.60;;;;;;;7.11;100.00;98884.81;11159484;26;20004;-35
2024/04/16 14:23:53;;;;;;;6.70;4.40;;;;;;;7.46;100.00;98883.78;11154869;26;20084;-33
2024/04/16 14:28:54;;;;;;;6.95;5.00;;;;;;;7.41;100.00;98881.94;11161791;26;20019;-34
2024/04/16 14:33:55;;;;;;;8.20;5.13;;;;;;;7.55;100.00;98892.66;11155273;26;19996;-33
2024/04/16 14:38:56;;;;;;;6.63;4.50;;;;;;;7.31;100.00;98897.34;11160149;26;20007;-34
2024/04/16 14:43:57;;;;;;;7.35;5.03;;;;;;;7.58;100.00;98904.81;11150300;26;20001;-34
2024/04/16 14:48:59;;;;;;;7.30;5.00;;;;;;;7.64;100.00;98903.22;11126412;26;20011;-33
2024/04/16 14:54:00;;;;;;;8.93;5.60;;;;;;;7.52;100.00;98920.31;11159220;26;19999;-33
2024/04/16 14:59:01;;;;;;;8.38;5.63;;;;;;;7.24;100.00;98930.13;11160235;26;20450;-34
2024/04/16 15:04:02;;;;;;;8.88;5.60;;;;;;;7.13;100.00;98922.06;11153198;26;19992;-34
2024/04/16 15:09:04;;;;;;;8.55;5.65;;;;;;;7.01;100.00;98932.22;11160106;26;20452;-35
2024/04/16 15:14:05;;;;;;;8.52;5.68;;;;;;;6.95;100.00;98939.88;11153981;26;20409;-33
2024/04/16 15:19:06;;;;;;;10.38;6.20;;;;;;;6.99;100.00;98944.28;11160769;26;20015;-34
2024/04/16 15:24:07;;;;;;;11.07;6.40;;;;;;;7.24;100.00;98955.22;11153738;26;20012;-33
2024/04/16 15:29:08;;;;;;;12.68;7.38;;;;;;;7.61;100.00;98944.78;11151569;26;20334;-34
2024/04/16 15:34:09;;;;;;;10.98;6.13;;;;;;;7.61;100.00;98944.78;11130855;26;20015;-33
2024/04/16 15:39:11;;;;;;;11.70;6.65;;;;;;;7.62;100.00;98950.84;11151829;26;20000;-33
2024/04/16 15:44:12;;;;;;;9.88;6.20;;;;;;;7.43;100.00;98962.56;11170875;26;20566;-34
2024/04/16 15:49:13;;;;;;;10.55;6.40;;;;;;;7.28;100.00;98964.84;11156998;26;20003;-33
2024/04/16 15:54:14;;;;;;;10.63;6.18;;;;;;;7.25;100.00;98967.38;11163272;26;20000;-33
2024/04/16 15:59:15;;;;;;;11.63;6.18;;;;;;;7.28;100.00;98972.63;11165339;26;20001;-33
2024/04/16 16:04:18;;;;;;;10.00;5.90;;;;;;;7.27;100.00;98973.47;11138516;26;20003;-34
2024/04/16 16:09:19;;;;;;;8.95;5.68;;;;;;;7.29;100.00;98980.44;11072326;26;20000;-33
2024/04/16 16:14:20;;;;;;;8.60;5.68;;;;;;;7.33;100.00;98982.28;11162672;26;20031;-33
2024/04/16 16:19:22;;;;;;;9.32;5.70;;;;;;;7.38;100.00;98992.78;11139255;26;19999;-33
2024/04/16 16:24:23;;;;;;;9.75;5.45;;;;;;;7.36;100.00;98992.75;11137047;26;20075;-35
2024/04/16 16:29:24;;;;;;;7.70;5.15;;;;;;;7.30;100.00;98995.22;11155668;26;20001;-33
2024/04/16 16:34:25;;;;;;;8.52;5.40;;;;;;;7.29;100.00;99005.56;11128717;26;20023;-34
2024/04/16 16:39:26;;;;;;;8.23;5.32;;;;;;;7.21;100.00;99019.25;11152718;26;19999;-33
2024/04/16 16:44:28;;;;;;;7.45;4.90;;;;;;;7.16;100.00;99022.59;11164056;26;19995;-34
2024/04/16 16:49:29;;;;;;;7.20;5.00;;;;;;;7.15;100.00;99018.25;11161659;26;19999;-34
2024/04/16 16:54:30;;;;;;;7.18;4.82;;;;;;;7.09;100.00;99023.28;11156666;26;19996;-33
2024/04/16 16:59:31;;;;;;;7.50;5.20;;;;;;;7.09;100.00;99028.50;11158883;26;20361;-34
2024/04/16 17:04:32;;;;;;;8.48;5.28;;;;;;;7.11;100.00;99038.09;11133713;26;19996;-34
2024/04/16 17:09:33;;;;;;;6.40;4.50;;;;;;;7.11;100.00;99039.81;11152481;26;20003;-33
2024/04/16 17:14:35;;;;;;;7.85;5.00;;;;;;;7.13;100.00;99045.91;11151366;26;20330;-34
2024/04/16 17:19:36;;;;;;;7.53;5.10;;;;;;;7.11;100.00;99048.47;11157089;26;20008;-33
2024/04/16 17:24:38;;;;;;;9.15;5.30;;;;;;;7.13;100.00;99053.69;11142065;26;20003;-33
2024/04/16 17:29:39;;;;;;;12.48;7.30;;;;;;;7.13;100.00;99062.34;11172213;26;19996;-33
2024/04/16 17:34:40;;;;;;;7.50;5.10;;;;;;;7.14;100.00;99063.25;11153540;26;19995;-33
2024/04/16 17:39:41;;;;;;;6.43;4.63;;;;;;;7.12;100.00;99073.59;11160572;26;20374;-33
2024/04/16 17:44:42;;;;;;;8.13;5.05;;;;;;;7.11;100.00;99089.16;11149908;26;19996;-35
2024/04/16 17:49:50;;;;;;;6.82;4.60;;;;;;;7.05;100.00;99100.28;11131785;26;20012;-34
2024/04/16 17:54:52;;;;;;;9.65;4.85;;;;;;;7.03;100.00;99101.94;11142554;26;20004;-34
2024/04/16 17:59:54;;;;;;;8.35;4.25;;;;;;;7.00;100.00;99104.47;11156462;26;20390;-33
2024/04/16 18:04:56;;;;;;;7.75;4.18;;;;;;;6.97;100.00;99107.84;11157123;26;20000;-35
2024/04/16 18:09:57;;;;;;;6.75;4.30;;;;;;;6.93;100.00;99120.75;11169792;26;20467;-33
2024/04/16 18:14:58;;;;;;;6.20;4.75;;;;;;;6.88;100.00;99128.44;11156896;26;19996;-34
2024/04/16 18:19:59;;;;;;;8.02;4.60;;;;;;;6.85;100.00;99135.22;11125255;26;19996;-33
2024/04/16 18:25:01;;;;;;;6.90;4.65;;;;;;;6.82;100.00;99149.03;11153288;26;20000;-34
2024/04/16 18:30:02;;;;;;;6.25;4.22;;;;;;;6.81;100.00;99162.84;11152905;26;20011;-34
2024/04/16 18:35:04;;;;;;;5.95;4.25;;;;;;;6.77;100.00;99165.31;11153348;26;20065;-33
2024/04/16 18:40:06;;;;;;;6.15;4.13;;;;;;;6.67;100.00;99169.38;11157793;26;20015;-34
2024/04/16 18:45:08;;;;;;;6.88;4.60;;;;;;;6.60;100.00;99181.31;11155749;26;20000;-35
2024/04/16 18:50:09;;;;;;;7.57;4.80;;;;;;;6.54;100.00;99191.53;11141742;26;20478;-33
2024/04/16 18:55:10;;;;;;;7.10;4.70;;;;;;;6.48;100.00;99199.13;11149964;26;20456;-33
2024/04/16 19:00:11;;;;;;;8.20;5.38;;;;;;;6.39;100.00;99202.31;11153806;26;20040;-35
2024/04/16 19:05:15;;;;;;;6.70;4.72;;;;;;;6.39;100.00;99212.72;11161936;26;20445;-34
2024/04/16 19:10:16;;;;;;;7.95;4.97;;;;;;;6.31;100.00;99219.38;11149352;26;20000;-34
2024/04/16 19:15:17;;;;;;;6.25;4.38;;;;;;;6.23;100.00;99231.25;11161723;26;20349;-33
2024/04/16 19:20:19;;;;;;;5.40;3.80;;;;;;;6.19;100.00;99235.47;11158936;26;20475;-33
2024/04/16 19:25:20;;;;;;;6.75;4.18;;;;;;;6.15;100.00;99241.41;11147253;26;20000;-34
2024/04/16 19:30:22;;;;;;;6.13;4.03;;;;;;;6.19;100.00;99247.56;11160153;26;20493;-33
2024/04/16 19:35:23;;;;;;;8.00;4.70;;;;;;;6.17;100.00;99257.00;11127287;26;20455;-33
2024/04/16 19:40:24;;;;;;;7.28;4.70;;;;;;;6.16;100.00;99255.25;11162924;26;19992;-33
2024/04/16 19:45:25;;;;;;;7.15;4.68;;;;;;;6.16;100.00;99256.13;11159524;26;20009;-34
2024/04/16 19:50:28;;;;;;;8.32;4.88;;;;;;;6.12;100.00;99281.91;11163226;26;19992;-34
2024/04/16 19:55:29;;;;;;;9.45;5.22;;;;;;;6.07;100.00;99275.72;11158466;26;20006;-34
2024/04/16 20:00:31;;;;;;;13.23;5.10;;;;;;;6.05;100.00;99280.84;11159807;26;19992;-33
2024/04/16 20:05:35;;;;;;;8.75;5.15;;;;;;;6.03;100.00;99285.97;11134527;26;20001;-34
2024/04/16 20:10:43;;;;;;;8.98;5.55;;;;;;;5.99;100.00;99288.41;11124981;26;20008;-33
2024/04/16 20:15:44;;;;;;;9.18;5.55;;;;;;;5.96;100.00;99302.19;11154099;26;20004;-33
2024/04/16 20:20:47;;;;;;;11.85;6.28;;;;;;;5.88;100.00;99307.91;11132743;26;19999;-34
2024/04/16 20:25:58;;;;;;;12.77;6.00;;;;;;;5.77;100.00;99313.63;11158362;26;20141;-35
2024/04/16 20:31:00;;;;;;;11.57;5.65;;;;;;;5.81;100.00;99312.00;11127379;26;20028;-35
2024/04/16 20:36:04;;;;;;;11.82;6.28;;;;;;;5.77;100.00;99316.22;11164099;26;19999;-34
2024/04/16 20:41:06;;;;;;;15.98;6.13;;;;;;;5.74;100.00;99326.47;11152884;26;20049;-34
2024/04/16 20:46:09;;;;;;;12.70;6.20;;;;;;;5.69;100.00;99333.22;11166228;26;20014;-34
2024/04/16 20:51:10;;;;;;;12.13;5.72;;;;;;;5.70;100.00;99334.09;11163241;26;20764;-33
2024/04/16 20:56:11;;;;;;;9.85;5.47;;;;;;;5.63;100.00;99340.78;11158492;26;20014;-34
2024/04/16 21:01:12;;;;;;;9.77;5.30;;;;;;;5.61;100.00;99342.41;11165560;26;19999;-34
2024/04/16 21:06:14;;;;;;;9.50;5.00;;;;;;;5.66;100.00;99342.59;11161449;26;20018;-33
2024/04/16 21:11:15;;;;;;;7.45;4.80;;;;;;;5.69;100.00;99346.16;11164047;26;20010;-35
2024/04/16 21:16:17;;;;;;;10.15;5.10;;;;;;;5.63;100.00;99351.13;11166797;26;20337;-35
2024/04/16 21:21:18;;;;;;;9.32;5.00;;;;;;;5.61;100.00;99364.88;11161408;26;20007;-33
2024/04/16 21:26:19;;;;;;;8.35;5.28;;;;;;;5.56;100.00;99369.91;11133606;26;20045;-33
2024/04/16 21:31:20;;;;;;;10.80;5.55;;;;;;;5.50;100.00;99373.16;11160458;26;20010;-34
2024/04/16 21:36:21;;;;;;;10.55;5.57;;;;;;;5.46;100.00;99384.25;11161976;26;20675;-34
2024/04/16 21:41:22;;;;;;;11.00;5.22;;;;;;;5.44;100.00;99391.06;11155986;26;20337;-33
2024/04/16 21:46:24;;;;;;;10.27;4.97;;;;;;;5.44;100.00;99392.78;11158693;26;19992;-33
2024/04/16 21:51:25;;;;;;;10.77;5.18;;;;;;;5.43;100.00;99394.50;11160196;26;20449;-34
2024/04/16 21:56:33;;;;;;;9.18;4.97;;;;;;;5.45;100.00;99392.81;11162636;26;20010;-33
2024/04/16 22:01:34;;;;;;;;;;;;;;;5.45;100.00;99392.81;11134666;26;20003;-34
2024/04/16 22:06:36;;;;;;;10.20;4.75;;;;;;;5.45;100.00;99397.13;11158562;26;19933;-35
2024/04/16 22:11:37;;;;;;;8.82;4.82;;;;;;;5.39;100.00;99410.72;11153287;26;20077;-33
2024/04/16 22:16:39;;;;;;;12.43;5.45;;;;;;;5.31;100.00;99414.78;11154287;26;20018;-34
2024/04/16 22:21:40;;;;;;;9.38;4.65;;;;;;;5.31;100.00;99417.38;11163008;26;20461;-33
2024/04/16 22:26:41;;;;;;;11.35;5.03;;;;;;;5.21;100.00;99425.63;11160399;26;20010;-35
2024/04/16 22:31:42;;;;;;;11.88;5.35;;;;;;;5.17;100.00;99428.91;11160823;26;20460;-33
2024/04/16 22:36:43;;;;;;;11.27;5.60;;;;;;;5.11;100.00;99433.03;11158322;26;20011;-34
2024/04/16 22:41:44;;;;;;;14.48;5.75;;;;;;;5.07;100.00;99438.03;11164777;26;20014;-34
2024/04/16 22:46:46;;;;;;;15.15;5.78;;;;;;;5.05;100.00;99439.69;11176335;26;20000;-35
2024/04/16 22:51:47;;;;;;;11.73;5.40;;;;;;;4.96;100.00;99452.28;11135182;26;20443;-33
2024/04/16 22:56:48;;;;;;;14.35;5.75;;;;;;;4.89;100.00;99454.63;11174859;26;20033;-34
2024/04/16 23:01:49;;;;;;;11.73;5.70;;;;;;;4.95;100.00;99443.63;11176390;26;19996;-33
2024/04/16 23:06:50;;;;;;;11.02;5.80;;;;;;;4.91;100.00;99458.97;11172578;26;20000;-34
2024/04/16 23:11:51;;;;;;;15.30;6.20;;;;;;;4.85;100.00;99462.19;11148990;26;20010;-33
2024/04/16 23:16:53;;;;;;;14.55;6.05;;;;;;;4.79;100.00;99462.84;11170979;26;20012;-34
2024/04/16 23:21:54;;;;;;;13.20;5.70;;;;;;;4.79;100.00;99470.63;11178270;26;20032;-33